Time;durP1;ratioP1;P1;durP2;ratioP2;P2;SDS_P1;SDS_P2;PMS_P1;PMS_P2;Temp;Humidity;BMP_temperature;BMP_pressure;BME280_temperature;BME280_humidity;BME280_pressure;Samples;Min_cycle;Max_cycle;Signal;HPM_P1;HPM_P2
2022/10/09 00:01:39;;;;;;;11.93;4.23;;;;;;;;;;6176100;28;20494;-72
2022/10/09 00:04:40;;;;;;;9.87;3.73;;;;;;;;;;6164236;28;20515;-73
2022/10/09 00:07:40;;;;;;;9.52;3.65;;;;;;;;;;6175358;28;20026;-72
2022/10/09 00:10:41;;;;;;;7.97;3.17;;;;;;;;;;6175194;28;20022;-72
2022/10/09 00:13:41;;;;;;;10.70;3.77;;;;;;;;;;6174626;28;20672;-72
2022/10/09 00:16:41;;;;;;;10.50;4.00;;;;;;;;;;6158692;28;20085;-72
2022/10/09 00:19:41;;;;;;;11.90;4.47;;;;;;;;;;6156342;28;20030;-73
2022/10/09 00:22:44;;;;;;;10.98;4.63;;;;;;;;;;6174321;28;20509;-73
2022/10/09 00:25:51;;;;;;;9.73;3.75;;;;;;;;;;6174674;28;20011;-73
2022/10/09 00:28:51;;;;;;;7.10;3.45;;;;;;;;;;6172231;28;20033;-72
2022/10/09 00:31:51;;;;;;;9.83;4.27;;;;;;;;;;6170202;28;20015;-73
2022/10/09 00:34:52;;;;;;;8.35;3.42;;;;;;;;;;6176105;28;20711;-73
2022/10/09 00:37:52;;;;;;;9.43;3.70;;;;;;;;;;6175196;28;20019;-73
2022/10/09 00:40:52;;;;;;;8.25;3.45;;;;;;;;;;6156047;28;20018;-73
2022/10/09 00:43:54;;;;;;;9.95;3.40;;;;;;;;;;6162082;28;20097;-73
2022/10/09 00:46:54;;;;;;;11.10;3.45;;;;;;;;;;6179298;28;20034;-73
2022/10/09 00:50:06;;;;;;;6.43;2.90;;;;;;;;;;6169294;28;20027;-73
2022/10/09 00:53:08;;;;;;;14.90;3.97;;;;;;;;;;6177745;28;20036;-72
2022/10/09 00:56:08;;;;;;;7.55;3.88;;;;;;;;;;6176996;28;20038;-73
2022/10/09 00:59:09;;;;;;;9.03;2.90;;;;;;;;;;6156852;28;20470;-73
2022/10/09 01:02:09;;;;;;;9.17;2.97;;;;;;;;;;6173559;28;20033;-73
2022/10/09 01:05:10;;;;;;;9.55;3.13;;;;;;;;;;6173957;28;20026;-73
2022/10/09 01:08:15;;;;;;;8.23;3.47;;;;;;;;;;6152689;28;20321;-73
2022/10/09 01:11:20;;;;;;;9.35;4.20;;;;;;;;;;6170069;28;20459;-73
2022/10/09 01:14:28;;;;;;;10.32;4.30;;;;;;;;;;6168210;28;20387;-74
2022/10/09 01:17:31;;;;;;;10.88;3.35;;;;;;;;;;6156432;28;20165;-74
2022/10/09 01:20:35;;;;;;;11.63;4.18;;;;;;;;;;6150132;28;20541;-74
2022/10/09 01:23:50;;;;;;;6.35;3.30;;;;;;;;;;6154524;28;20029;-73
2022/10/09 01:27:04;;;;;;;10.32;4.03;;;;;;;;;;6154339;28;20026;-73
2022/10/09 01:30:06;;;;;;;7.97;4.00;;;;;;;;;;6173954;28;20474;-74
2022/10/09 01:33:06;;;;;;;7.20;3.20;;;;;;;;;;6174751;28;20034;-74
2022/10/09 01:36:07;;;;;;;6.94;3.36;;;;;;;;;;6175715;28;20031;-74
2022/10/09 01:39:09;;;;;;;7.40;3.47;;;;;;;;;;6168827;28;20041;-73
2022/10/09 01:42:11;;;;;;;6.25;3.85;;;;;;;;;;6169747;28;20033;-72
2022/10/09 01:45:12;;;;;;;7.63;3.78;;;;;;;;;;6150488;28;20153;-73
2022/10/09 01:48:17;;;;;;;9.90;3.70;;;;;;;;;;6156639;28;20073;-73
2022/10/09 01:51:20;;;;;;;8.07;3.47;;;;;;;;;;6173114;28;20034;-73
2022/10/09 01:54:27;;;;;;;7.72;3.70;;;;;;;;;;6154339;28;20029;-73
2022/10/09 01:57:47;;;;;;;12.93;4.50;;;;;;;;;;6172029;28;20046;-74
2022/10/09 02:01:00;;;;;;;7.25;4.07;;;;;;;;;;6162214;28;20173;-74
2022/10/09 02:04:04;;;;;;;10.35;4.55;;;;;;;;;;6171655;28;20023;-74
2022/10/09 02:07:04;;;;;;;10.55;4.18;;;;;;;;;;6171963;28;20037;-74
2022/10/09 02:10:06;;;;;;;10.77;4.93;;;;;;;;;;6153454;28;20015;-74
2022/10/09 02:13:07;;;;;;;8.50;4.30;;;;;;;;;;6171699;28;20018;-74
2022/10/09 02:16:26;;;;;;;10.32;3.65;;;;;;;;;;6172971;28;20069;-74
2022/10/09 02:19:32;;;;;;;9.43;4.10;;;;;;;;;;6173203;28;20252;-74
2022/10/09 02:22:34;;;;;;;6.80;3.75;;;;;;;;;;6175922;28;20054;-74
2022/10/09 02:25:34;;;;;;;9.52;4.15;;;;;;;;;;6173079;28;20491;-73
2022/10/09 02:28:35;;;;;;;6.28;3.83;;;;;;;;;;6169031;28;20021;-73
2022/10/09 02:31:36;;;;;;;10.02;5.40;;;;;;;;;;6172221;28;20015;-73
2022/10/09 02:34:37;;;;;;;9.23;5.22;;;;;;;;;;6160813;28;20106;-72
2022/10/09 02:37:37;;;;;;;8.43;3.47;;;;;;;;;;6174644;28;20023;-72
2022/10/09 02:40:37;;;;;;;8.65;4.72;;;;;;;;;;6172137;28;20378;-72
2022/10/09 02:43:37;;;;;;;11.20;3.97;;;;;;;;;;6172008;28;20027;-72
2022/10/09 02:46:38;;;;;;;11.60;4.95;;;;;;;;;;6158517;28;20038;-72
2022/10/09 02:49:38;;;;;;;6.07;3.43;;;;;;;;;;6173904;28;20508;-72
2022/10/09 02:52:38;;;;;;;11.77;4.82;;;;;;;;;;6173470;28;20382;-74
2022/10/09 02:55:39;;;;;;;9.63;5.73;;;;;;;;;;6154828;28;20019;-73
2022/10/09 02:58:39;;;;;;;11.47;4.67;;;;;;;;;;6155312;28;20050;-73
2022/10/09 03:01:39;;;;;;;15.63;5.83;;;;;;;;;;6171308;28;20025;-73
2022/10/09 03:04:39;;;;;;;9.17;5.03;;;;;;;;;;6171745;28;20019;-74
2022/10/09 03:07:40;;;;;;;11.77;5.40;;;;;;;;;;6153871;28;20022;-74
2022/10/09 03:10:40;;;;;;;10.37;5.23;;;;;;;;;;6174723;28;20627;-74
2022/10/09 03:13:40;;;;;;;9.23;4.22;;;;;;;;;;6178060;28;20093;-74
2022/10/09 03:16:40;;;;;;;15.07;6.10;;;;;;;;;;6160659;28;20026;-74
2022/10/09 03:19:40;;;;;;;8.23;5.20;;;;;;;;;;6181541;28;20050;-73
2022/10/09 03:22:41;;;;;;;12.38;5.18;;;;;;;;;;6163449;28;20031;-73
2022/10/09 03:25:41;;;;;;;13.23;6.28;;;;;;;;;;6179877;28;20927;-73
2022/10/09 03:28:42;;;;;;;12.70;5.10;;;;;;;;;;6178653;28;20109;-73
2022/10/09 03:31:43;;;;;;;11.05;5.90;;;;;;;;;;6174955;28;20022;-73
2022/10/09 03:34:43;;;;;;;16.70;7.65;;;;;;;;;;6176951;28;20372;-73
2022/10/09 03:37:43;;;;;;;12.75;6.88;;;;;;;;;;6173574;28;20546;-73
2022/10/09 03:40:43;;;;;;;14.10;5.93;;;;;;;;;;6171606;28;20047;-73
2022/10/09 03:43:43;;;;;;;12.00;5.60;;;;;;;;;;6157842;28;20026;-73
2022/10/09 03:46:44;;;;;;;11.67;6.30;;;;;;;;;;6177037;28;20106;-73
2022/10/09 03:49:44;;;;;;;14.93;6.70;;;;;;;;;;6175775;28;20638;-72
2022/10/09 03:52:44;;;;;;;9.38;5.00;;;;;;;;;;6174764;28;20277;-73
2022/10/09 03:55:44;;;;;;;11.55;6.10;;;;;;;;;;6157740;28;20266;-73
2022/10/09 03:58:44;;;;;;;13.83;6.50;;;;;;;;;;6176881;28;20391;-73
2022/10/09 04:01:44;;;;;;;13.30;7.20;;;;;;;;;;6181163;28;20033;-73
2022/10/09 04:04:45;;;;;;;15.00;5.57;;;;;;;;;;6172588;28;20489;-73
2022/10/09 04:07:45;;;;;;;12.30;5.90;;;;;;;;;;6165484;28;20014;-73
2022/10/09 04:10:45;;;;;;;9.83;5.97;;;;;;;;;;6157450;28;20117;-73
2022/10/09 04:13:45;;;;;;;17.00;5.30;;;;;;;;;;6153097;28;20474;-73
2022/10/09 04:16:45;;;;;;;11.07;6.57;;;;;;;;;;6176028;28;20356;-73
2022/10/09 04:19:46;;;;;;;12.88;6.97;;;;;;;;;;6157285;28;20050;-73
2022/10/09 04:22:46;;;;;;;15.20;8.80;;;;;;;;;;6174321;28;20364;-73
2022/10/09 04:25:46;;;;;;;25.05;11.38;;;;;;;;;;6175200;28;20438;-73
2022/10/09 04:28:47;;;;;;;23.23;12.30;;;;;;;;;;6172259;28;20419;-73
2022/10/09 04:31:47;;;;;;;18.20;9.32;;;;;;;;;;6157369;28;20031;-73
2022/10/09 04:34:47;;;;;;;15.20;8.00;;;;;;;;;;6155820;28;20309;-72
2022/10/09 04:37:47;;;;;;;13.52;7.20;;;;;;;;;;6175261;28;20023;-72
2022/10/09 04:40:54;;;;;;;14.27;8.10;;;;;;;;;;6174772;28;20388;-73
2022/10/09 04:43:55;;;;;;;13.05;7.88;;;;;;;;;;6168405;28;20553;-73
2022/10/09 04:46:55;;;;;;;14.20;6.90;;;;;;;;;;6172348;28;20019;-73
2022/10/09 04:49:56;;;;;;;12.15;7.03;;;;;;;;;;6157708;28;20014;-74
2022/10/09 04:52:56;;;;;;;13.88;7.75;;;;;;;;;;6155837;28;20019;-73
2022/10/09 04:55:57;;;;;;;10.27;6.60;;;;;;;;;;6172384;28;20019;-73
2022/10/09 04:58:57;;;;;;;13.13;7.13;;;;;;;;;;6172528;28;20015;-73
2022/10/09 05:01:57;;;;;;;14.65;6.35;;;;;;;;;;6174778;28;20033;-73
2022/10/09 05:04:57;;;;;;;14.98;6.88;;;;;;;;;;6179707;28;20288;-73
2022/10/09 05:07:57;;;;;;;14.63;7.93;;;;;;;;;;6173617;28;20274;-73
2022/10/09 05:11:02;;;;;;;16.00;8.37;;;;;;;;;;6155024;28;20015;-73
2022/10/09 05:14:02;;;;;;;14.43;8.68;;;;;;;;;;6167817;28;20023;-73
2022/10/09 05:17:04;;;;;;;14.10;8.70;;;;;;;;;;6153979;28;20066;-73
2022/10/09 05:20:04;;;;;;;14.10;8.40;;;;;;;;;;6156693;28;20270;-73
2022/10/09 05:23:04;;;;;;;19.80;9.48;;;;;;;;;;6173122;28;20481;-73
2022/10/09 05:26:05;;;;;;;14.77;8.30;;;;;;;;;;6173899;28;20014;-73
2022/10/09 05:29:06;;;;;;;13.25;7.75;;;;;;;;;;6170331;28;20406;-73
2022/10/09 05:32:06;;;;;;;15.27;8.15;;;;;;;;;;6172905;28;20445;-73
2022/10/09 05:35:06;;;;;;;12.97;8.00;;;;;;;;;;6173274;28;20023;-73
2022/10/09 05:38:07;;;;;;;17.27;8.52;;;;;;;;;;6173431;28;20015;-73
2022/10/09 05:41:09;;;;;;;15.02;7.95;;;;;;;;;;6173892;28;20019;-73
2022/10/09 05:44:09;;;;;;;15.80;7.47;;;;;;;;;;6167389;28;20138;-73
2022/10/09 05:47:09;;;;;;;17.23;6.93;;;;;;;;;;6156462;28;20025;-73
2022/10/09 05:50:09;;;;;;;11.30;6.33;;;;;;;;;;6180692;28;20106;-73
2022/10/09 05:53:10;;;;;;;9.00;5.33;;;;;;;;;;6168175;28;20045;-73
2022/10/09 05:56:11;;;;;;;10.17;5.80;;;;;;;;;;6172953;28;20028;-73
2022/10/09 05:59:13;;;;;;;9.52;6.38;;;;;;;;;;6154902;28;20066;-74
2022/10/09 06:02:14;;;;;;;10.55;6.03;;;;;;;;;;6155303;28;20215;-73
2022/10/09 06:05:14;;;;;;;12.02;6.68;;;;;;;;;;6166360;28;20022;-73
2022/10/09 06:08:14;;;;;;;13.23;6.27;;;;;;;;;;6152140;28;20511;-73
2022/10/09 06:11:14;;;;;;;10.30;6.07;;;;;;;;;;6170371;28;20193;-73
2022/10/09 06:14:15;;;;;;;11.82;6.68;;;;;;;;;;6171222;28;20546;-74
2022/10/09 06:17:15;;;;;;;18.50;7.10;;;;;;;;;;6154509;28;20045;-74
2022/10/09 06:20:15;;;;;;;13.20;5.63;;;;;;;;;;6154834;28;20019;-74
2022/10/09 06:23:15;;;;;;;11.80;5.57;;;;;;;;;;6170800;28;20381;-74
2022/10/09 06:26:16;;;;;;;11.43;5.65;;;;;;;;;;6166446;28;20017;-74
2022/10/09 06:29:16;;;;;;;15.43;7.13;;;;;;;;;;6167124;28;20081;-74
2022/10/09 06:32:16;;;;;;;13.73;6.93;;;;;;;;;;6146749;28;20029;-73
2022/10/09 06:35:16;;;;;;;11.82;6.65;;;;;;;;;;6149034;28;20086;-73
2022/10/09 06:38:17;;;;;;;11.50;5.20;;;;;;;;;;6169410;28;20023;-73
2022/10/09 06:41:18;;;;;;;10.77;5.33;;;;;;;;;;6163583;28;20507;-74
2022/10/09 06:44:19;;;;;;;;;;;;;;;;;;6164191;28;20055;-73
2022/10/09 06:47:19;;;;;;;7.45;4.43;;;;;;;;;;6171751;28;19933;-74
2022/10/09 06:50:19;;;;;;;6.72;3.05;;;;;;;;;;6171291;28;20033;-73
2022/10/09 06:53:19;;;;;;;9.27;3.57;;;;;;;;;;6150349;28;20433;-73
2022/10/09 06:56:21;;;;;;;9.33;3.67;;;;;;;;;;6151783;28;20027;-73
2022/10/09 06:59:21;;;;;;;8.57;3.60;;;;;;;;;;6161433;28;20045;-73
2022/10/09 07:02:21;;;;;;;11.93;4.87;;;;;;;;;;6148824;28;20034;-73
2022/10/09 07:05:21;;;;;;;9.00;5.07;;;;;;;;;;6171929;28;20078;-74
2022/10/09 07:08:22;;;;;;;11.02;4.28;;;;;;;;;;6153739;28;20501;-74
2022/10/09 07:11:23;;;;;;;7.30;3.20;;;;;;;;;;6166252;28;20079;-74
2022/10/09 07:14:24;;;;;;;7.68;3.80;;;;;;;;;;6163996;28;20036;-74
2022/10/09 07:17:25;;;;;;;11.53;4.70;;;;;;;;;;6170548;28;20507;-74
2022/10/09 07:20:25;;;;;;;8.13;4.10;;;;;;;;;;6158934;28;20027;-73
2022/10/09 07:23:26;;;;;;;6.90;3.47;;;;;;;;;;6160077;28;20027;-73
2022/10/09 07:26:27;;;;;;;11.77;4.13;;;;;;;;;;6158983;28;20046;-73
2022/10/09 07:29:27;;;;;;;8.03;4.10;;;;;;;;;;6161818;28;20023;-73
2022/10/09 07:32:27;;;;;;;12.65;4.22;;;;;;;;;;6161263;28;20030;-74
2022/10/09 07:35:28;;;;;;;6.57;3.37;;;;;;;;;;6164510;28;20037;-73
2022/10/09 07:38:28;;;;;;;13.60;3.10;;;;;;;;;;6148086;28;20046;-73
2022/10/09 07:41:29;;;;;;;8.60;2.90;;;;;;;;;;6171428;28;20023;-73
2022/10/09 07:44:29;;;;;;;8.80;3.60;;;;;;;;;;6168717;28;20055;-73
2022/10/09 07:47:29;;;;;;;4.90;3.10;;;;;;;;;;6148167;28;20169;-72
2022/10/09 07:50:29;;;;;;;7.88;4.03;;;;;;;;;;6162988;28;20023;-72
2022/10/09 07:53:30;;;;;;;8.52;4.30;;;;;;;;;;6150859;28;20023;-73
2022/10/09 07:56:31;;;;;;;4.63;2.83;;;;;;;;;;6153598;28;20033;-73
2022/10/09 07:59:31;;;;;;;9.60;3.00;;;;;;;;;;6169781;28;20097;-72
2022/10/09 08:02:31;;;;;;;6.20;3.80;;;;;;;;;;6157031;28;20027;-73
2022/10/09 08:05:32;;;;;;;8.27;3.63;;;;;;;;;;6174976;28;20372;-72
2022/10/09 08:08:32;;;;;;;7.67;2.80;;;;;;;;;;6174500;28;20018;-73
2022/10/09 08:11:32;;;;;;;5.00;2.70;;;;;;;;;;6175315;28;20029;-72
2022/10/09 08:14:33;;;;;;;4.80;2.83;;;;;;;;;;6175452;28;20077;-73
2022/10/09 08:17:33;;;;;;;5.47;2.77;;;;;;;;;;6174428;28;20448;-73
2022/10/09 08:20:33;;;;;;;6.43;3.70;;;;;;;;;;6153803;28;20015;-72
2022/10/09 08:23:34;;;;;;;5.20;3.97;;;;;;;;;;6173987;28;20098;-73
2022/10/09 08:26:34;;;;;;;5.07;3.53;;;;;;;;;;6174528;28;20490;-73
2022/10/09 08:29:34;;;;;;;7.85;4.47;;;;;;;;;;6155683;28;20119;-73
2022/10/09 08:32:34;;;;;;;4.20;2.55;;;;;;;;;;6175778;28;20479;-73
2022/10/09 08:35:34;;;;;;;7.63;3.73;;;;;;;;;;6171804;28;20025;-73
2022/10/09 08:38:35;;;;;;;5.47;2.80;;;;;;;;;;6171962;28;20019;-73
2022/10/09 08:41:41;;;;;;;9.80;3.47;;;;;;;;;;6166403;28;20038;-73
2022/10/09 08:44:45;;;;;;;6.05;3.58;;;;;;;;;;6173869;28;20105;-73
2022/10/09 08:47:45;;;;;;;12.13;5.00;;;;;;;;;;6155140;28;20019;-74
2022/10/09 08:50:47;;;;;;;12.00;4.63;;;;;;;;;;6150313;28;20022;-74
2022/10/09 08:54:00;;;;;;;7.25;4.25;;;;;;;;;;6167636;28;20538;-73
2022/10/09 08:57:02;;;;;;;6.30;3.67;;;;;;;;;;6171948;28;20022;-73
2022/10/09 09:00:05;;;;;;;11.30;3.67;;;;;;;;;;6175380;28;20023;-73
2022/10/09 09:03:17;;;;;;;9.07;4.28;;;;;;;;;;6175570;28;20089;-73
2022/10/09 09:06:22;;;;;;;7.65;3.85;;;;;;;;;;6175148;28;20026;-73
2022/10/09 09:09:46;;;;;;;6.93;3.60;;;;;;;;;;6156500;28;20006;-73
2022/10/09 09:12:54;;;;;;;7.32;3.45;;;;;;;;;;6161195;28;20045;-73
2022/10/09 09:16:02;;;;;;;6.45;2.90;;;;;;;;;;6172861;28;20482;-73
2022/10/09 09:19:13;;;;;;;6.70;3.97;;;;;;;;;;6165966;28;20053;-73
2022/10/09 09:22:14;;;;;;;7.57;4.13;;;;;;;;;;6166918;28;20026;-73
2022/10/09 09:25:19;;;;;;;8.40;4.38;;;;;;;;;;6142923;28;20015;-73
2022/10/09 09:28:23;;;;;;;7.38;2.55;;;;;;;;;;6154824;28;20015;-73
2022/10/09 09:31:35;;;;;;;5.95;3.60;;;;;;;;;;6161999;28;20259;-71
2022/10/09 09:34:37;;;;;;;8.77;3.42;;;;;;;;;;6172870;28;20022;-71
2022/10/09 09:37:38;;;;;;;6.18;2.40;;;;;;;;;;6163620;28;20077;-71
2022/10/09 09:40:38;;;;;;;5.83;2.57;;;;;;;;;;6167161;28;20019;-73
2022/10/09 09:43:38;;;;;;;6.17;2.47;;;;;;;;;;6149109;28;20019;-72
2022/10/09 09:46:39;;;;;;;8.80;3.40;;;;;;;;;;6167064;28;20037;-73
2022/10/09 09:49:51;;;;;;;7.10;2.97;;;;;;;;;;6167652;28;20026;-73
2022/10/09 09:52:52;;;;;;;6.47;3.13;;;;;;;;;;6157594;28;20055;-72
2022/10/09 09:55:52;;;;;;;;;;;;;;;;;;6161169;28;20141;-72
2022/10/09 09:58:53;;;;;;;6.22;2.53;;;;;;;;;;6168468;28;20317;-73
2022/10/09 10:02:23;;;;;;;8.07;2.97;;;;;;;;;;6165432;28;20135;-72
2022/10/09 10:05:24;;;;;;;3.85;2.25;;;;;;;;;;6135111;28;20050;-73
2022/10/09 10:08:31;;;;;;;4.60;1.98;;;;;;;;;;6170026;28;20018;-73
2022/10/09 10:11:34;;;;;;;3.72;1.92;;;;;;;;;;6160510;28;20130;-72
2022/10/09 10:14:34;;;;;;;4.43;2.65;;;;;;;;;;6151621;28;20030;-72
2022/10/09 10:17:35;;;;;;;7.33;1.97;;;;;;;;;;6169743;28;20428;-73
2022/10/09 10:20:43;;;;;;;4.40;1.98;;;;;;;;;;6169296;28;20030;-72
2022/10/09 10:24:01;;;;;;;4.88;2.33;;;;;;;;;;6170452;28;20030;-72
2022/10/09 10:27:21;;;;;;;4.30;1.90;;;;;;;;;;6163730;28;20026;-74
2022/10/09 10:30:21;;;;;;;4.05;1.50;;;;;;;;;;6144681;28;20057;-73
2022/10/09 10:33:24;;;;;;;2.90;1.98;;;;;;;;;;6169643;28;20472;-73
2022/10/09 10:36:25;;;;;;;4.82;2.20;;;;;;;;;;6163676;28;20027;-73
2022/10/09 10:39:45;;;;;;;4.57;1.95;;;;;;;;;;6171060;28;20023;-73
2022/10/09 10:42:57;;;;;;;6.78;2.42;;;;;;;;;;6166329;28;20038;-72
2022/10/09 10:46:01;;;;;;;3.55;2.13;;;;;;;;;;6153552;28;20532;-72
2022/10/09 10:49:02;;;;;;;4.85;1.92;;;;;;;;;;6166258;28;20027;-72
2022/10/09 10:52:16;;;;;;;2.63;1.60;;;;;;;;;;6170628;28;20026;-73
2022/10/09 10:55:41;;;;;;;4.78;2.55;;;;;;;;;;6165333;28;20026;-73
2022/10/09 10:59:13;;;;;;;5.10;2.10;;;;;;;;;;6151005;28;20466;-72
2022/10/09 11:02:33;;;;;;;6.00;1.40;;;;;;;;;;6112108;28;20032;-72
2022/10/09 11:05:33;;;;;;;3.92;1.67;;;;;;;;;;6165339;28;20019;-73
2022/10/09 11:08:40;;;;;;;4.50;1.77;;;;;;;;;;6168239;28;20406;-72
2022/10/09 11:11:51;;;;;;;5.38;1.65;;;;;;;;;;6171796;28;20090;-72
2022/10/09 11:15:00;;;;;;;5.55;1.88;;;;;;;;;;6151374;28;20038;-72
2022/10/09 11:18:06;;;;;;;3.10;1.50;;;;;;;;;;6155642;28;20474;-72
2022/10/09 11:21:22;;;;;;;7.82;1.80;;;;;;;;;;6170852;28;20466;-73
2022/10/09 11:24:37;;;;;;;4.72;1.85;;;;;;;;;;6170469;28;20018;-72
2022/10/09 11:27:38;;;;;;;5.55;2.13;;;;;;;;;;6167507;28;20023;-72
2022/10/09 11:30:45;;;;;;;8.02;1.98;;;;;;;;;;6172766;28;20022;-72
2022/10/09 11:34:06;;;;;;;6.65;2.10;;;;;;;;;;6185122;28;20023;-72
2022/10/09 11:37:11;;;;;;;4.43;2.70;;;;;;;;;;6172121;28;20434;-72
2022/10/09 11:40:13;;;;;;;5.25;2.10;;;;;;;;;;6169276;28;20094;-72
2022/10/09 11:43:20;;;;;;;4.95;1.98;;;;;;;;;;6171684;28;20023;-72
2022/10/09 11:46:28;;;;;;;2.63;1.60;;;;;;;;;;6168536;28;20522;-72
2022/10/09 11:49:47;;;;;;;4.55;2.63;;;;;;;;;;6172808;28;20109;-73
2022/10/09 11:52:56;;;;;;;7.57;1.95;;;;;;;;;;6173122;28;20034;-72
2022/10/09 11:56:05;;;;;;;4.85;1.67;;;;;;;;;;6156447;28;20031;-72
2022/10/09 11:59:05;;;;;;;5.00;2.10;;;;;;;;;;6167604;28;20038;-72
2022/10/09 12:02:32;;;;;;;5.68;2.05;;;;;;;;;;6158348;28;20139;-73
2022/10/09 12:05:35;;;;;;;8.15;1.85;;;;;;;;;;6156003;28;20061;-72
2022/10/09 12:08:36;;;;;;;2.60;1.40;;;;;;;;;;6171579;28;20371;-72
2022/10/09 12:11:36;;;;;;;2.60;1.00;;;;;;;;;;6172346;28;20049;-72
2022/10/09 12:14:36;;;;;;;3.80;2.37;;;;;;;;;;6172547;28;20019;-73
2022/10/09 12:17:46;;;;;;;5.10;1.70;;;;;;;;;;6167711;28;20067;-73
2022/10/09 12:20:47;;;;;;;2.83;1.48;;;;;;;;;;6165865;28;20494;-72
2022/10/09 12:23:48;;;;;;;4.45;2.10;;;;;;;;;;6171695;28;20030;-73
2022/10/09 12:26:50;;;;;;;5.03;1.58;;;;;;;;;;6153226;28;20023;-73
2022/10/09 12:29:55;;;;;;;8.38;2.15;;;;;;;;;;6168419;28;20022;-73
2022/10/09 12:33:05;;;;;;;4.07;1.88;;;;;;;;;;6165928;28;20026;-73
2022/10/09 12:36:11;;;;;;;3.95;1.45;;;;;;;;;;6167466;28;20458;-72
2022/10/09 12:39:18;;;;;;;3.03;1.60;;;;;;;;;;6144823;28;20034;-72
2022/10/09 12:42:23;;;;;;;8.43;3.17;;;;;;;;;;6170788;28;20493;-72
2022/10/09 12:45:25;;;;;;;5.18;2.55;;;;;;;;;;6173870;28;20097;-72
2022/10/09 12:48:26;;;;;;;4.47;1.98;;;;;;;;;;6168708;28;20015;-73
2022/10/09 12:51:28;;;;;;;19.90;9.63;;;;;;;;;;6171288;28;20023;-73
2022/10/09 12:54:29;;;;;;;5.00;3.60;;;;;;;;;;6168577;28;20351;-72
2022/10/09 12:57:30;;;;;;;22.00;6.05;;;;;;;;;;6172876;28;20026;-73
2022/10/09 13:00:30;;;;;;;9.30;2.40;;;;;;;;;;6160905;28;20045;-73
2022/10/09 13:03:35;;;;;;;4.38;1.50;;;;;;;;;;6170995;28;20069;-73
2022/10/09 13:06:37;;;;;;;3.47;1.67;;;;;;;;;;6167601;28;20023;-73
2022/10/09 13:09:38;;;;;;;5.05;1.88;;;;;;;;;;6152260;28;20218;-72
2022/10/09 13:12:38;;;;;;;35.50;5.53;;;;;;;;;;6161424;28;20438;-72
2022/10/09 13:15:38;;;;;;;23.77;4.57;;;;;;;;;;6153437;28;20019;-72
2022/10/09 13:18:39;;;;;;;11.07;2.10;;;;;;;;;;6155616;28;20010;-72
2022/10/09 13:21:39;;;;;;;9.70;1.87;;;;;;;;;;6174263;28;20042;-73
2022/10/09 13:24:39;;;;;;;25.53;4.43;;;;;;;;;;6173452;28;20471;-73
2022/10/09 13:27:39;;;;;;;4.40;2.33;;;;;;;;;;6166050;28;20018;-72
2022/10/09 13:30:39;;;;;;;20.57;10.03;;;;;;;;;;6170626;28;20050;-73
2022/10/09 13:33:40;;;;;;;2.72;1.60;;;;;;;;;;6169077;28;20049;-73
2022/10/09 13:36:40;;;;;;;19.80;4.10;;;;;;;;;;6164390;28;20034;-73
2022/10/09 13:39:40;;;;;;;11.60;5.53;;;;;;;;;;6171603;28;20477;-72
2022/10/09 13:42:41;;;;;;;7.87;2.47;;;;;;;;;;6149056;28;20031;-72
2022/10/09 13:45:42;;;;;;;4.70;2.20;;;;;;;;;;6166622;28;20289;-73
2022/10/09 13:48:42;;;;;;;5.03;1.83;;;;;;;;;;6169747;28;20022;-73
2022/10/09 13:51:42;;;;;;;2.03;1.27;;;;;;;;;;6166360;28;20278;-73
2022/10/09 13:54:42;;;;;;;4.40;2.10;;;;;;;;;;6168942;28;20119;-73
2022/10/09 13:57:42;;;;;;;41.15;14.98;;;;;;;;;;6173566;28;20030;-73
2022/10/09 14:00:43;;;;;;;11.40;7.17;;;;;;;;;;6172000;28;20097;-72
2022/10/09 14:03:43;;;;;;;12.63;10.57;;;;;;;;;;6171933;28;20078;-72
2022/10/09 14:06:44;;;;;;;7.10;3.83;;;;;;;;;;6168216;28;20034;-71
2022/10/09 14:09:44;;;;;;;4.00;1.70;;;;;;;;;;6171936;28;20018;-72
2022/10/09 14:12:44;;;;;;;3.67;1.52;;;;;;;;;;6169133;28;20030;-72
2022/10/09 14:15:44;;;;;;;4.40;1.70;;;;;;;;;;6154774;28;20027;-72
2022/10/09 14:18:44;;;;;;;28.30;5.88;;;;;;;;;;6172504;28;20053;-72
2022/10/09 14:21:46;;;;;;;6.63;2.70;;;;;;;;;;6154540;28;20022;-73
2022/10/09 14:24:46;;;;;;;10.05;7.47;;;;;;;;;;6167334;28;20494;-73
2022/10/09 14:27:46;;;;;;;9.60;2.80;;;;;;;;;;6171225;28;20486;-73
2022/10/09 14:30:46;;;;;;;4.27;3.20;;;;;;;;;;6168555;28;20073;-72
2022/10/09 14:33:47;;;;;;;5.40;2.78;;;;;;;;;;6175597;28;20038;-72
2022/10/09 14:36:47;;;;;;;3.80;1.50;;;;;;;;;;6169653;28;20031;-72
2022/10/09 14:39:48;;;;;;;4.77;1.60;;;;;;;;;;6166950;28;20086;-72
2022/10/09 14:42:48;;;;;;;3.17;1.50;;;;;;;;;;6170722;28;20034;-72
2022/10/09 14:45:48;;;;;;;3.57;2.20;;;;;;;;;;6171355;28;20426;-73
2022/10/09 14:48:48;;;;;;;7.17;2.87;;;;;;;;;;6154102;28;20073;-73
2022/10/09 14:51:48;;;;;;;9.27;3.33;;;;;;;;;;6166703;28;20033;-73
2022/10/09 14:54:49;;;;;;;4.25;2.90;;;;;;;;;;6160605;28;20387;-72
2022/10/09 14:57:49;;;;;;;4.57;2.70;;;;;;;;;;6168582;28;20034;-73
2022/10/09 15:00:49;;;;;;;4.15;1.98;;;;;;;;;;6168743;28;20034;-72
2022/10/09 15:03:49;;;;;;;5.63;2.15;;;;;;;;;;6147229;28;20461;-73
2022/10/09 15:06:49;;;;;;;12.53;3.03;;;;;;;;;;6176668;28;20030;-73
2022/10/09 15:09:49;;;;;;;9.60;2.13;;;;;;;;;;6157149;28;20037;-73
2022/10/09 15:12:50;;;;;;;3.70;1.98;;;;;;;;;;6178061;28;20030;-73
2022/10/09 15:15:50;;;;;;;2.97;1.30;;;;;;;;;;6175803;28;20415;-73
2022/10/09 15:18:51;;;;;;;6.30;1.60;;;;;;;;;;6172741;28;20106;-73
2022/10/09 15:21:51;;;;;;;4.78;1.90;;;;;;;;;;6173900;28;20026;-72
2022/10/09 15:24:51;;;;;;;5.13;2.03;;;;;;;;;;6171419;28;20026;-73
2022/10/09 15:27:52;;;;;;;5.23;2.63;;;;;;;;;;6172632;28;20065;-73
2022/10/09 15:30:53;;;;;;;8.23;4.83;;;;;;;;;;6177515;28;20025;-73
2022/10/09 15:33:54;;;;;;;11.52;5.90;;;;;;;;;;6175245;28;20031;-73
2022/10/09 15:36:55;;;;;;;10.57;5.28;;;;;;;;;;6178249;28;20019;-73
2022/10/09 15:39:55;;;;;;;16.60;8.33;;;;;;;;;;6178085;28;20549;-73
2022/10/09 15:42:55;;;;;;;24.80;14.60;;;;;;;;;;6179920;28;20395;-73
2022/10/09 15:46:01;;;;;;;26.67;15.57;;;;;;;;;;6155015;28;20055;-73
2022/10/09 15:49:01;;;;;;;8.45;4.38;;;;;;;;;;6170189;28;20122;-73
2022/10/09 15:52:02;;;;;;;6.13;2.90;;;;;;;;;;6157834;29;20027;-73
2022/10/09 15:55:02;;;;;;;4.83;3.10;;;;;;;;;;6156467;28;20027;-73
2022/10/09 15:58:03;;;;;;;9.77;3.33;;;;;;;;;;6156174;28;20076;-73
2022/10/09 16:01:07;;;;;;;5.83;3.53;;;;;;;;;;6156102;28;20038;-73
2022/10/09 16:04:08;;;;;;;5.40;3.05;;;;;;;;;;6153650;28;20499;-73
2022/10/09 16:07:08;;;;;;;9.23;3.83;;;;;;;;;;6155894;28;20106;-72
2022/10/09 16:10:09;;;;;;;10.73;4.80;;;;;;;;;;6154518;28;20517;-72
2022/10/09 16:13:09;;;;;;;11.27;4.90;;;;;;;;;;6156039;29;20110;-72
2022/10/09 16:16:12;;;;;;;15.03;6.90;;;;;;;;;;6154315;28;20097;-72
2022/10/09 16:19:12;;;;;;;16.77;8.63;;;;;;;;;;6154245;28;20023;-74
2022/10/09 16:22:12;;;;;;;17.07;7.37;;;;;;;;;;6153326;28;20391;-74
2022/10/09 16:25:12;;;;;;;17.90;7.93;;;;;;;;;;6147481;28;20039;-74
2022/10/09 16:28:13;;;;;;;13.07;6.53;;;;;;;;;;6145304;29;20027;-74
2022/10/09 16:31:20;;;;;;;20.63;8.10;;;;;;;;;;6144157;28;20067;-74
2022/10/09 16:34:20;;;;;;;17.13;8.68;;;;;;;;;;6141968;29;20026;-74
2022/10/09 16:37:21;;;;;;;20.25;9.73;;;;;;;;;;6149861;29;20031;-73
2022/10/09 16:40:21;;;;;;;17.50;8.63;;;;;;;;;;6150646;29;20075;-73
2022/10/09 16:43:21;;;;;;;19.75;10.60;;;;;;;;;;6150888;28;20473;-74
2022/10/09 16:46:24;;;;;;;28.67;12.33;;;;;;;;;;6179004;28;20288;-74
2022/10/09 16:49:24;;;;;;;22.98;11.75;;;;;;;;;;6153622;28;20067;-74
2022/10/09 16:52:24;;;;;;;40.72;21.90;;;;;;;;;;6172115;28;20077;-74
2022/10/09 16:55:26;;;;;;;47.00;25.80;;;;;;;;;;6163466;28;20651;-74
2022/10/09 16:58:26;;;;;;;38.88;20.42;;;;;;;;;;6169001;28;20317;-74
2022/10/09 17:01:27;;;;;;;31.70;15.82;;;;;;;;;;6170492;28;20018;-74
2022/10/09 17:04:27;;;;;;;36.92;19.48;;;;;;;;;;6171698;28;20537;-74
2022/10/09 17:07:28;;;;;;;33.50;18.75;;;;;;;;;;6178671;28;20471;-74
2022/10/09 17:10:28;;;;;;;38.23;19.53;;;;;;;;;;6162385;28;20108;-72
2022/10/09 17:13:28;;;;;;;42.30;22.63;;;;;;;;;;6176658;28;20327;-74
2022/10/09 17:16:30;;;;;;;42.73;22.90;;;;;;;;;;6174299;28;20027;-74
2022/10/09 17:19:31;;;;;;;;;;;;;;;;;;6173598;28;20035;-74
2022/10/09 17:22:31;;;;;;;46.97;24.23;;;;;;;;;;6175341;28;19914;-74
2022/10/09 17:25:32;;;;;;;47.45;26.20;;;;;;;;;;6176506;28;20097;-74
2022/10/09 17:28:33;;;;;;;48.60;25.55;;;;;;;;;;6171605;28;20015;-74
2022/10/09 17:31:33;;;;;;;43.13;23.88;;;;;;;;;;6158022;28;20030;-75
2022/10/09 17:34:33;;;;;;;49.97;27.10;;;;;;;;;;6171266;28;20387;-74
2022/10/09 17:37:34;;;;;;;47.00;23.13;;;;;;;;;;6167235;28;20034;-74
2022/10/09 17:40:37;;;;;;;60.47;34.55;;;;;;;;;;6168994;28;20030;-75
2022/10/09 17:43:38;;;;;;;50.83;29.88;;;;;;;;;;6153176;28;20474;-74
2022/10/09 17:46:38;;;;;;;46.80;25.10;;;;;;;;;;6172051;28;20019;-74
2022/10/09 17:49:38;;;;;;;38.90;20.53;;;;;;;;;;6170007;28;20600;-73
2022/10/09 17:52:38;;;;;;;46.37;22.70;;;;;;;;;;6176478;28;20022;-74
2022/10/09 17:55:38;;;;;;;44.95;23.25;;;;;;;;;;6161287;28;20077;-74
2022/10/09 17:58:39;;;;;;;44.07;22.73;;;;;;;;;;6143871;28;20023;-73
2022/10/09 18:01:39;;;;;;;47.38;26.45;;;;;;;;;;6156791;28;20269;-73
2022/10/09 18:04:39;;;;;;;33.58;19.00;;;;;;;;;;6172060;28;20019;-74